Accueil
METAR-TAF:

METAR-TAF

Aéroports :

Alofi, Niue

Aéroport international de Niue

latitude: 19-04S, longitude: 169-55W, altitude: 20 m

Observation

Le bulletin a été fait il y a 1 heure et 3 minutes, à 20:00 UTC
Vent 9 kt de est/sud-est
Température 27°C
Humidité 84%
Pression 1012 hPa
Visibilité 10 km ou plus
Nuages fragmentés à une hauteur de 1800 ft

METAR: NIUE 242000Z 11009KT 9999 BKN018 27/24 Q1012 RMKS: DEW ON GRASS

Heure: 10:03 (21:03 UTC)

Prévision

Le bulletin a été fait il y a 3 heures et 34 minutes, à 17:29 UTC
Prévision valable du 24 à 18 UTC au 25 à 18 UTC
Vent 8 kt de est/sud-est
Visibilité 10 km ou plus
Nuages épars à une hauteur de 1800 ft

TAF: NIUE 241729Z 2418/2518 12008KT 9999 SCT018

Observations et prévisions météorologiques de plus de 4000 aéroports (messages METAR et TAF).

Les stations disponibles sont représentées par des disques jaunes et rouges sur la carte.

Passer la souris dessus pour voir le nom de la station.

Cliquer dessus pour voir les observations et prévisions météorologiques.

Pour changer de carte: cliquez sur les boutons verts avec une croix noire pour zoomer, sur le bouton vert avec un tiret pour effectuer un zoom arrière, ou sur les flèches vertes pour les cartes adjacentes.


METAR-TAF: